Time;durP1;ratioP1;P1;durP2;ratioP2;P2;SDS_P1;SDS_P2;PMS_P1;PMS_P2;Temp;Humidity;BMP_temperature;BMP_pressure;BME280_temperature;BME280_humidity;BME280_pressure;Samples;Min_cycle;Max_cycle;Signal;HPM_P1;HPM_P2
2022/01/13 00:04:47;;;;;;;11.20;4.32;;;;;;;;;;20921379;28;20053;-59
2022/01/13 00:15:09;;;;;;;5.03;3.45;;;;;;;;;;20921851;28;20045;-59
2022/01/13 00:25:14;;;;;;;6.07;3.35;;;;;;;;;;20921019;28;20091;-59
2022/01/13 00:35:17;;;;;;;5.33;2.70;;;;;;;;;;20919452;28;20049;-59
2022/01/13 00:45:19;;;;;;;4.65;3.42;;;;;;;;;;20918926;28;20076;-59
2022/01/13 00:55:22;;;;;;;4.63;2.80;;;;;;;;;;20917893;28;20120;-58
2022/01/13 01:05:24;;;;;;;6.82;3.70;;;;;;;;;;20917593;28;20057;-59
2022/01/13 01:15:29;;;;;;;7.18;3.10;;;;;;;;;;20916720;28;20052;-59
2022/01/13 01:25:41;;;;;;;4.37;2.10;;;;;;;;;;20915610;28;20053;-60
2022/01/13 01:35:43;;;;;;;4.28;2.30;;;;;;;;;;20914711;28;20099;-59
2022/01/13 01:45:49;;;;;;;4.43;2.80;;;;;;;;;;20914162;28;20417;-58
2022/01/13 01:55:53;;;;;;;4.50;2.92;;;;;;;;;;20913520;28;20083;-58
2022/01/13 02:05:57;;;;;;;5.65;3.22;;;;;;;;;;20913170;28;20081;-57
2022/01/13 02:16:05;;;;;;;4.95;2.85;;;;;;;;;;20912578;28;20128;-58
2022/01/13 02:26:09;;;;;;;5.45;2.85;;;;;;;;;;20913026;28;20072;-58
2022/01/13 02:36:12;;;;;;;6.60;2.97;;;;;;;;;;20912363;28;20053;-58
2022/01/13 02:46:32;;;;;;;7.57;3.40;;;;;;;;;;20912465;28;20057;-58
2022/01/13 02:56:37;;;;;;;5.97;3.03;;;;;;;;;;20921527;28;20057;-58
2022/01/13 03:06:41;;;;;;;5.32;2.78;;;;;;;;;;20926256;28;20511;-58
2022/01/13 03:16:44;;;;;;;4.53;2.95;;;;;;;;;;20926664;28;20110;-60
2022/01/13 03:26:47;;;;;;;6.20;2.70;;;;;;;;;;20924922;28;20148;-59
2022/01/13 03:36:50;;;;;;;4.78;2.63;;;;;;;;;;20925084;28;20489;-58
2022/01/13 03:46:51;;;;;;;4.90;2.08;;;;;;;;;;20923436;28;20049;-58
2022/01/13 03:57:12;;;;;;;6.35;2.60;;;;;;;;;;20922693;28;20114;-58
2022/01/13 04:07:16;;;;;;;5.22;2.38;;;;;;;;;;20921872;28;20103;-58
2022/01/13 04:17:20;;;;;;;3.10;2.30;;;;;;;;;;20921307;28;20053;-58
2022/01/13 04:27:26;;;;;;;4.05;2.47;;;;;;;;;;20920518;28;20056;-59
2022/01/13 04:37:28;;;;;;;4.30;2.33;;;;;;;;;;20919048;28;20120;-58
2022/01/13 04:47:32;;;;;;;3.88;1.92;;;;;;;;;;20918495;28;20485;-58
2022/01/13 04:57:36;;;;;;;3.63;2.05;;;;;;;;;;20917919;28;20096;-58
2022/01/13 05:07:39;;;;;;;4.35;3.13;;;;;;;;;;20916408;28;20053;-59
2022/01/13 05:27:56;;;;;;;4.40;2.15;;;;;;;;;;20915414;28;20049;-58
2022/01/13 05:37:59;;;;;;;5.05;2.28;;;;;;;;;;20914663;28;20047;-58
2022/01/13 05:48:03;;;;;;;6.78;3.58;;;;;;;;;;20914717;28;20092;-58
2022/01/13 05:58:05;;;;;;;5.97;2.30;;;;;;;;;;20913464;28;20087;-57
2022/01/13 06:08:07;;;;;;;5.32;2.38;;;;;;;;;;20915035;28;20388;-57
2022/01/13 06:18:14;;;;;;;4.28;2.10;;;;;;;;;;20912539;28;20056;-57
2022/01/13 06:28:16;;;;;;;5.38;2.72;;;;;;;;;;20919365;28;20099;-58
2022/01/13 06:38:18;;;;;;;6.43;3.30;;;;;;;;;;20928431;28;20132;-59
2022/01/13 06:48:20;;;;;;;4.18;2.33;;;;;;;;;;20926661;28;20500;-59
2022/01/13 06:58:23;;;;;;;4.72;2.20;;;;;;;;;;20926177;28;20060;-59
2022/01/13 07:08:26;;;;;;;4.03;2.30;;;;;;;;;;20925788;28;20049;-59
2022/01/13 07:18:39;;;;;;;6.57;2.72;;;;;;;;;;20925755;28;20124;-58
2022/01/13 07:28:43;;;;;;;4.93;2.75;;;;;;;;;;20923391;28;20049;-58
2022/01/13 07:38:49;;;;;;;8.95;3.63;;;;;;;;;;20921471;28;20052;-59
2022/01/13 07:48:54;;;;;;;6.38;3.28;;;;;;;;;;20922911;28;20060;-59
2022/01/13 07:58:57;;;;;;;9.05;3.70;;;;;;;;;;20922316;28;20104;-58
2022/01/13 08:09:01;;;;;;;7.57;3.55;;;;;;;;;;20920891;28;20433;-58
2022/01/13 08:29:34;;;;;;;10.93;3.65;;;;;;;;;;20911610;28;20099;-58
2022/01/13 08:39:44;;;;;;;9.77;3.47;;;;;;;;;;20918608;28;20433;-60
2022/01/13 08:49:47;;;;;;;9.38;3.70;;;;;;;;;;20917916;28;20118;-58
2022/01/13 09:00:09;;;;;;;11.48;4.20;;;;;;;;;;20917990;28;20459;-58
2022/01/13 09:10:31;;;;;;;9.07;4.15;;;;;;;;;;20914911;28;20060;-60
2022/01/13 09:20:52;;;;;;;19.58;7.38;;;;;;;;;;20916550;28;20056;-59
2022/01/13 09:31:07;;;;;;;10.43;5.68;;;;;;;;;;20914890;28;20504;-58
2022/01/13 09:41:16;;;;;;;8.32;4.13;;;;;;;;;;20914063;28;20044;-59
2022/01/13 09:51:24;;;;;;;7.10;3.97;;;;;;;;;;20913658;28;20045;-58
2022/01/13 10:01:30;;;;;;;10.88;4.05;;;;;;;;;;20912304;28;20056;-58
2022/01/13 10:11:38;;;;;;;10.63;3.60;;;;;;;;;;20897667;28;20132;-55
2022/01/13 10:21:54;;;;;;;5.68;2.53;;;;;;;;;;20911278;28;20056;-55
2022/01/13 10:31:57;;;;;;;7.97;2.90;;;;;;;;;;20851498;28;20045;-61
2022/01/13 10:42:15;;;;;;;4.15;2.53;;;;;;;;;;20836765;28;20512;-64
2022/01/13 10:52:26;;;;;;;12.00;3.45;;;;;;;;;;20844373;28;20487;-60
2022/01/13 11:02:30;;;;;;;7.97;2.38;;;;;;;;;;20828951;28;20062;-58
2022/01/13 11:12:40;;;;;;;9.85;3.10;;;;;;;;;;20839527;28;20041;-65
2022/01/13 11:22:44;;;;;;;6.70;3.40;;;;;;;;;;20889255;28;20048;-58
2022/01/13 11:32:48;;;;;;;5.03;2.65;;;;;;;;;;20843278;28;20049;-57
2022/01/13 11:42:51;;;;;;;6.90;3.40;;;;;;;;;;20905104;28;20049;-59
2022/01/13 11:52:53;;;;;;;5.72;2.17;;;;;;;;;;20921558;28;20087;-52
2022/01/13 12:02:57;;;;;;;10.60;3.20;;;;;;;;;;20900944;28;20097;-53
2022/01/13 12:12:59;;;;;;;7.50;2.58;;;;;;;;;;20895127;28;20127;-52
2022/01/13 12:23:14;;;;;;;4.53;2.40;;;;;;;;;;20905960;28;20788;-52
2022/01/13 12:33:33;;;;;;;6.63;2.90;;;;;;;;;;20918358;28;20087;-54
2022/01/13 12:53:46;;;;;;;7.32;2.40;;;;;;;;;;20915179;28;20072;-53
2022/01/13 13:04:02;;;;;;;7.68;3.13;;;;;;;;;;20915124;28;20049;-60
2022/01/13 13:14:11;;;;;;;7.15;3.05;;;;;;;;;;20914710;28;20152;-62
2022/01/13 13:24:13;;;;;;;6.18;2.58;;;;;;;;;;20874861;28;20049;-60
2022/01/13 13:34:15;;;;;;;8.52;3.63;;;;;;;;;;20864823;28;20510;-58
2022/01/13 13:44:17;;;;;;;6.15;2.92;;;;;;;;;;20911868;28;20416;-59
2022/01/13 13:54:20;;;;;;;5.80;3.08;;;;;;;;;;20913428;28;20456;-60
2022/01/13 14:04:33;;;;;;;4.47;1.70;;;;;;;;;;20911813;28;20106;-59
2022/01/13 14:14:37;;;;;;;4.20;2.53;;;;;;;;;;20912197;28;20056;-58
2022/01/13 14:24:39;;;;;;;4.20;2.33;;;;;;;;;;20911039;28;20053;-59
2022/01/13 14:34:43;;;;;;;6.63;2.03;;;;;;;;;;20910257;28;20056;-59
2022/01/13 14:44:47;;;;;;;5.40;2.00;;;;;;;;;;20910554;28;20151;-59
2022/01/13 14:54:49;;;;;;;4.00;2.55;;;;;;;;;;20924698;28;20053;-61
2022/01/13 15:04:52;;;;;;;3.10;2.40;;;;;;;;;;20926566;28;20400;-60
2022/01/13 15:14:54;;;;;;;3.53;2.08;;;;;;;;;;20925359;28;20049;-58
2022/01/13 15:24:56;;;;;;;3.20;2.13;;;;;;;;;;20924325;28;20485;-58
2022/01/13 15:34:58;;;;;;;11.27;3.03;;;;;;;;;;20922770;28;20053;-56
2022/01/13 15:45:00;;;;;;;4.22;2.20;;;;;;;;;;20923951;28;20045;-57
2022/01/13 15:55:04;;;;;;;7.68;3.30;;;;;;;;;;20921388;28;20057;-59
2022/01/13 16:05:08;;;;;;;5.60;2.30;;;;;;;;;;20919946;28;20057;-59
2022/01/13 16:15:13;;;;;;;9.82;3.60;;;;;;;;;;20920669;28;20480;-59
2022/01/13 16:25:15;;;;;;;7.45;2.88;;;;;;;;;;20919086;28;20067;-58
2022/01/13 16:35:19;;;;;;;3.33;1.95;;;;;;;;;;20917955;28;20049;-58
2022/01/13 16:45:26;;;;;;;6.68;3.35;;;;;;;;;;20917649;28;20080;-58
2022/01/13 16:55:28;;;;;;;33.00;4.88;;;;;;;;;;20916333;28;20489;-58
2022/01/13 17:05:31;;;;;;;4.03;2.92;;;;;;;;;;20916481;28;20612;-59
2022/01/13 17:15:33;;;;;;;7.13;3.90;;;;;;;;;;20912132;28;20052;-60
2022/01/13 17:25:35;;;;;;;5.53;2.42;;;;;;;;;;20913234;28;20053;-59
2022/01/13 17:35:38;;;;;;;5.50;2.53;;;;;;;;;;20901779;28;20106;-57
2022/01/13 17:45:40;;;;;;;4.53;2.78;;;;;;;;;;20913651;28;20397;-57
2022/01/13 17:55:43;;;;;;;10.77;3.30;;;;;;;;;;20911505;28;20061;-58
2022/01/13 18:05:45;;;;;;;10.90;4.90;;;;;;;;;;20912347;28;20053;-57
2022/01/13 18:15:51;;;;;;;13.40;5.60;;;;;;;;;;20912816;28;20052;-57
2022/01/13 18:25:53;;;;;;;15.35;6.47;;;;;;;;;;20920655;28;20075;-58
2022/01/13 18:35:55;;;;;;;15.70;6.70;;;;;;;;;;20927922;28;20057;-57
2022/01/13 18:46:02;;;;;;;15.50;7.90;;;;;;;;;;20927028;28;20477;-56
2022/01/13 18:56:04;;;;;;;12.00;6.50;;;;;;;;;;20925634;28;20084;-56
2022/01/13 19:06:06;;;;;;;16.40;6.60;;;;;;;;;;20925923;28;20064;-57
2022/01/13 19:16:10;;;;;;;15.05;7.50;;;;;;;;;;20923586;28;20049;-56
2022/01/13 19:26:12;;;;;;;14.10;7.72;;;;;;;;;;20923683;28;20053;-57
2022/01/13 19:36:14;;;;;;;15.88;7.60;;;;;;;;;;20922027;28;20072;-57
2022/01/13 19:46:16;;;;;;;14.93;5.30;;;;;;;;;;20922858;28;20061;-58
2022/01/13 19:56:20;;;;;;;6.95;4.72;;;;;;;;;;20920784;28;20083;-57
2022/01/13 20:06:22;;;;;;;9.10;3.78;;;;;;;;;;20920899;28;20053;-58
2022/01/13 20:16:24;;;;;;;9.02;4.60;;;;;;;;;;20920356;28;20544;-58
2022/01/13 20:26:25;;;;;;;8.43;4.43;;;;;;;;;;20919505;28;20106;-56
2022/01/13 20:36:27;;;;;;;10.30;4.20;;;;;;;;;;20918201;28;20052;-56
2022/01/13 20:46:29;;;;;;;9.60;4.20;;;;;;;;;;20917414;28;20049;-56
2022/01/13 20:56:31;;;;;;;6.53;3.35;;;;;;;;;;20917513;28;20056;-58
2022/01/13 21:06:33;;;;;;;9.00;3.92;;;;;;;;;;20916753;28;20052;-56
2022/01/13 21:16:36;;;;;;;7.22;4.95;;;;;;;;;;20915401;28;20060;-57
2022/01/13 21:26:40;;;;;;;8.10;4.57;;;;;;;;;;20914822;28;20095;-57
2022/01/13 21:36:42;;;;;;;7.82;3.65;;;;;;;;;;20914788;28;20041;-55
2022/01/13 21:46:46;;;;;;;13.35;8.30;;;;;;;;;;20914177;28;20053;-56
2022/01/13 21:56:48;;;;;;;5.70;4.38;;;;;;;;;;20912417;28;20056;-56
2022/01/13 22:06:50;;;;;;;6.45;4.22;;;;;;;;;;20912920;28;20099;-54
2022/01/13 22:16:52;;;;;;;8.52;4.65;;;;;;;;;;20912245;28;20053;-55
2022/01/13 22:26:54;;;;;;;6.97;4.72;;;;;;;;;;20911965;28;20088;-53
2022/01/13 22:36:56;;;;;;;11.38;5.72;;;;;;;;;;20911277;28;20080;-57
2022/01/13 22:46:59;;;;;;;10.07;5.28;;;;;;;;;;20911471;28;20045;-55
2022/01/13 22:57:00;;;;;;;7.82;4.90;;;;;;;;;;20910745;28;20049;-56
2022/01/13 23:07:02;;;;;;;9.52;5.05;;;;;;;;;;20912012;28;20061;-54
2022/01/13 23:27:24;;;;;;;10.30;6.80;;;;;;;;;;20925374;28;20067;-54
2022/01/13 23:37:28;;;;;;;11.25;8.27;;;;;;;;;;20924321;28;20080;-56
2022/01/13 23:47:29;;;;;;;12.20;6.25;;;;;;;;;;20923218;28;20095;-54
2022/01/13 23:57:32;;;;;;;9.60;5.90;;;;;;;;;;20922169;28;20081;-53
